createdAt,value
2022-09-14T00:10:05.539Z,98511.92
2022-09-14T00:20:12.335Z,98497.09
2022-09-14T00:30:18.152Z,98487.30
2022-09-14T00:40:23.843Z,98485.66
2022-09-14T00:50:29.641Z,98478.30
2022-09-14T01:00:35.447Z,98471.11
2022-09-14T01:10:54.199Z,98468.47
2022-09-14T01:21:05.028Z,98469.80
2022-09-14T01:31:18.484Z,98467.16
2022-09-14T01:41:30.214Z,98462.48
2022-09-14T01:51:40.325Z,98466.16
2022-09-14T02:01:53.212Z,98459.59
2022-09-14T02:12:00.906Z,98446.55
2022-09-14T02:22:06.746Z,98443.88
2022-09-14T02:32:22.337Z,98432.13
2022-09-14T02:42:40.648Z,98424.39
2022-09-14T02:52:53.523Z,98413.73
2022-09-14T03:02:59.580Z,98408.70
2022-09-14T03:13:05.846Z,98395.36
2022-09-14T03:23:12.138Z,98393.23
2022-09-14T03:33:17.987Z,98389.05
2022-09-14T03:43:23.597Z,98383.55
2022-09-14T03:53:29.266Z,98390.34
2022-09-14T04:03:35.694Z,98393.52
2022-09-14T04:13:41.908Z,98392.15
2022-09-14T04:34:14.769Z,98401.30
2022-09-14T04:44:20.577Z,98401.61
2022-09-14T04:54:26.120Z,98397.27
2022-09-14T05:04:31.862Z,98392.43
2022-09-14T05:14:37.683Z,98397.61
2022-09-14T05:24:43.381Z,98406.52
2022-09-14T05:34:49.004Z,98411.10
2022-09-14T05:44:54.721Z,98407.44
2022-09-14T05:55:00.510Z,98408.02
2022-09-14T06:05:06.826Z,98410.49
2022-09-14T06:15:13.530Z,98415.05
2022-09-14T06:25:19.125Z,98410.20
2022-09-14T06:35:24.735Z,98422.08
2022-09-14T06:45:31.223Z,98429.26
2022-09-14T06:55:36.905Z,98429.67
2022-09-14T07:05:42.571Z,98432.20
2022-09-14T07:15:52.579Z,98441.13
2022-09-14T07:26:05.187Z,98434.93
2022-09-14T07:36:13.116Z,98426.23
2022-09-14T07:46:19.130Z,98412.76
2022-09-14T07:56:25.939Z,98421.96
2022-09-14T08:06:32.105Z,98420.04
2022-09-14T08:16:38.895Z,98422.31
2022-09-14T08:26:44.759Z,98416.21
2022-09-14T08:36:51.041Z,98416.48
2022-09-14T08:47:02.943Z,98413.92
2022-09-14T08:57:16.882Z,98412.94
2022-09-14T09:07:32.754Z,98414.67
2022-09-14T09:17:43.644Z,98410.48
2022-09-14T09:27:49.450Z,98407.59
2022-09-14T09:37:55.181Z,98404.38
2022-09-14T09:48:09.511Z,98401.75
2022-09-14T09:58:29.380Z,98407.41
2022-09-14T10:08:40.755Z,98410.77
2022-09-14T10:18:49.591Z,98417.58
2022-09-14T10:28:55.818Z,98422.51
2022-09-14T10:39:16.231Z,98422.31
2022-09-14T10:49:38.008Z,98416.98
2022-09-14T10:59:53.610Z,98414.11
2022-09-14T11:10:06.715Z,98410.61
2022-09-14T11:20:25.791Z,98402.05
2022-09-14T11:30:39.732Z,98393.30
2022-09-14T11:40:48.328Z,98395.19
2022-09-14T11:51:01.134Z,98391.23
2022-09-14T12:01:28.849Z,98385.45
2022-09-14T12:11:37.152Z,98367.58
2022-09-14T12:21:43.634Z,98368.54
2022-09-14T12:32:23.249Z,98367.62
2022-09-14T12:42:32.201Z,98365.08
2022-09-14T12:52:46.064Z,98358.90
2022-09-14T13:03:07.053Z,98361.20
2022-09-14T13:13:26.938Z,98353.95
2022-09-14T13:23:37.907Z,98348.25
2022-09-14T13:33:50.015Z,98351.52
2022-09-14T13:43:58.003Z,98342.48
2022-09-14T13:54:17.511Z,98328.27
2022-09-14T14:04:28.398Z,98322.02
2022-09-14T14:14:34.204Z,98315.05
2022-09-14T14:25:02.048Z,98312.48
2022-09-14T14:35:15.660Z,98312.21
2022-09-14T14:45:26.470Z,98305.74
2022-09-14T14:55:33.167Z,98297.48
2022-09-14T15:05:42.233Z,98285.49
2022-09-14T15:15:48.034Z,98275.39
2022-09-14T15:25:55.059Z,98266.11
2022-09-14T15:36:01.270Z,98265.98
2022-09-14T15:46:07.105Z,98265.96
2022-09-14T15:56:14.308Z,98255.46
2022-09-14T16:06:19.898Z,98253.55
2022-09-14T16:16:26.042Z,98250.46
2022-09-14T16:26:33.912Z,98249.20
2022-09-14T16:36:41.780Z,98246.26
2022-09-14T16:46:48.827Z,98246.30
2022-09-14T16:56:57.078Z,98238.71
2022-09-14T17:07:02.900Z,98240.10
2022-09-14T17:17:08.975Z,98241.52
2022-09-14T17:27:14.625Z,98229.81
2022-09-14T17:37:20.325Z,98233.42
2022-09-14T17:47:26.548Z,98244.69
2022-09-14T17:57:32.141Z,98253.98
2022-09-14T18:07:37.937Z,98252.69
2022-09-14T18:17:44.994Z,98244.61
2022-09-14T18:27:50.778Z,98234.01
2022-09-14T18:37:56.991Z,98223.48
2022-09-14T18:48:03.509Z,98223.47
2022-09-14T18:58:09.549Z,98223.55
2022-09-14T19:08:15.220Z,98207.48
2022-09-14T19:18:21.031Z,98204.88
2022-09-14T19:28:26.809Z,98194.81
2022-09-14T19:38:32.831Z,98189.49
2022-09-14T19:48:39.159Z,98184.63
2022-09-14T19:58:46.868Z,98188.46
2022-09-14T20:08:54.555Z,98191.38
2022-09-14T20:19:06.082Z,98182.61
2022-09-14T20:29:11.726Z,98183.40
2022-09-14T20:39:17.846Z,98175.17
2022-09-14T20:49:24.659Z,98170.68
2022-09-14T20:59:30.622Z,98167.59
2022-09-14T21:09:37.209Z,98167.66
2022-09-14T21:19:43.001Z,98159.47
2022-09-14T21:29:50.417Z,98157.93
2022-09-14T21:39:57.774Z,98152.23
2022-09-14T21:50:03.657Z,98150.41
2022-09-14T22:00:12.553Z,98133.05
2022-09-14T22:10:19.429Z,98120.02
2022-09-14T22:20:25.172Z,98117.91
2022-09-14T22:30:30.833Z,98110.84
2022-09-14T22:40:36.664Z,98109.36
2022-09-14T22:50:43.977Z,98106.94
2022-09-14T23:00:50.055Z,98104.33
2022-09-14T23:10:56.170Z,98099.17
2022-09-14T23:21:05.437Z,98094.25
2022-09-14T23:31:11.157Z,98082.33
2022-09-14T23:41:16.952Z,98081.67
2022-09-14T23:51:22.756Z,98084.95
